sensor_id;sensor_type;location;lat;lon;timestamp;pressure;altitude;pressure_sealevel;temperature;humidity
38630;BME280;24384;51.988;4.644;2023-05-02T00:01:52;102156.75;;;11.04;86.14
38630;BME280;24384;51.988;4.644;2023-05-02T00:04:17;102162.81;;;11.13;86.50
38630;BME280;24384;51.988;4.644;2023-05-02T00:06:43;102155.69;;;11.18;85.83
38630;BME280;24384;51.988;4.644;2023-05-02T00:09:10;102155.00;;;11.05;85.98
38630;BME280;24384;51.988;4.644;2023-05-02T00:11:35;102152.41;;;11.00;86.12
38630;BME280;24384;51.988;4.644;2023-05-02T00:14:00;102152.25;;;11.11;86.01
38630;BME280;24384;51.988;4.644;2023-05-02T00:16:25;102152.34;;;11.06;86.74
38630;BME280;24384;51.988;4.644;2023-05-02T00:18:51;102158.44;;;11.10;86.78
38630;BME280;24384;51.988;4.644;2023-05-02T00:21:16;102161.81;;;11.20;86.95
38630;BME280;24384;51.988;4.644;2023-05-02T00:23:42;102164.28;;;11.31;85.55
38630;BME280;24384;51.988;4.644;2023-05-02T00:26:08;102165.28;;;11.25;85.87
38630;BME280;24384;51.988;4.644;2023-05-02T00:28:33;102166.09;;;11.28;85.81
38630;BME280;24384;51.988;4.644;2023-05-02T00:30:58;102172.28;;;11.24;86.18
38630;BME280;24384;51.988;4.644;2023-05-02T00:33:23;102164.34;;;11.26;85.75
38630;BME280;24384;51.988;4.644;2023-05-02T00:35:49;102173.94;;;11.33;86.03
38630;BME280;24384;51.988;4.644;2023-05-02T00:38:15;102170.50;;;11.28;86.51
38630;BME280;24384;51.988;4.644;2023-05-02T00:40:48;102166.94;;;11.29;86.59
38630;BME280;24384;51.988;4.644;2023-05-02T00:43:16;102168.03;;;11.17;86.83
38630;BME280;24384;51.988;4.644;2023-05-02T00:45:41;102167.94;;;11.23;87.11
38630;BME280;24384;51.988;4.644;2023-05-02T00:48:10;102163.66;;;11.13;86.95
38630;BME280;24384;51.988;4.644;2023-05-02T00:50:36;102160.00;;;11.25;86.72
38630;BME280;24384;51.988;4.644;2023-05-02T00:53:02;102172.25;;;11.27;86.75
38630;BME280;24384;51.988;4.644;2023-05-02T00:55:27;102173.19;;;11.25;87.14
38630;BME280;24384;51.988;4.644;2023-05-02T00:57:52;102166.31;;;11.13;86.12
38630;BME280;24384;51.988;4.644;2023-05-02T01:00:18;102181.19;;;11.19;86.18
38630;BME280;24384;51.988;4.644;2023-05-02T01:02:47;102183.00;;;11.15;86.86
38630;BME280;24384;51.988;4.644;2023-05-02T01:05:24;102187.28;;;11.24;86.26
38630;BME280;24384;51.988;4.644;2023-05-02T01:07:54;102187.19;;;11.30;86.27
38630;BME280;24384;51.988;4.644;2023-05-02T01:12:54;102185.72;;;11.07;87.32
38630;BME280;24384;51.988;4.644;2023-05-02T01:15:22;102184.78;;;11.15;87.03
38630;BME280;24384;51.988;4.644;2023-05-02T01:17:48;102190.97;;;11.10;87.60
38630;BME280;24384;51.988;4.644;2023-05-02T01:20:16;102194.69;;;10.99;86.39
38630;BME280;24384;51.988;4.644;2023-05-02T01:22:44;102202.69;;;10.92;86.06
38630;BME280;24384;51.988;4.644;2023-05-02T01:25:16;102200.00;;;10.96;86.78
38630;BME280;24384;51.988;4.644;2023-05-02T01:30:27;102211.50;;;10.90;85.43
38630;BME280;24384;51.988;4.644;2023-05-02T01:32:54;102212.44;;;10.83;84.94
38630;BME280;24384;51.988;4.644;2023-05-02T01:35:20;102214.09;;;10.93;84.67
38630;BME280;24384;51.988;4.644;2023-05-02T01:37:47;102211.56;;;10.85;84.58
38630;BME280;24384;51.988;4.644;2023-05-02T01:40:16;102208.00;;;10.88;83.35
38630;BME280;24384;51.988;4.644;2023-05-02T01:42:42;102214.94;;;10.95;83.75
38630;BME280;24384;51.988;4.644;2023-05-02T01:45:09;102217.53;;;10.98;84.45
38630;BME280;24384;51.988;4.644;2023-05-02T01:47:35;102217.56;;;10.95;84.67
38630;BME280;24384;51.988;4.644;2023-05-02T01:50:04;102228.00;;;11.06;84.31
38630;BME280;24384;51.988;4.644;2023-05-02T01:52:31;102228.22;;;10.87;84.19
38630;BME280;24384;51.988;4.644;2023-05-02T01:54:58;102225.81;;;10.67;85.81
38630;BME280;24384;51.988;4.644;2023-05-02T01:57:24;102233.50;;;10.87;84.95
38630;BME280;24384;51.988;4.644;2023-05-02T01:59:50;102234.25;;;11.00;83.96
38630;BME280;24384;51.988;4.644;2023-05-02T02:02:15;102246.66;;;10.92;83.86
38630;BME280;24384;51.988;4.644;2023-05-02T02:04:41;102245.81;;;10.88;83.68
38630;BME280;24384;51.988;4.644;2023-05-02T02:07:09;102246.59;;;10.97;82.79
38630;BME280;24384;51.988;4.644;2023-05-02T02:09:35;102253.72;;;10.90;82.63
38630;BME280;24384;51.988;4.644;2023-05-02T02:12:04;102255.44;;;10.96;82.79
38630;BME280;24384;51.988;4.644;2023-05-02T02:14:34;102260.06;;;10.73;83.63
38630;BME280;24384;51.988;4.644;2023-05-02T02:17:01;102261.72;;;10.82;82.56
38630;BME280;24384;51.988;4.644;2023-05-02T02:19:30;102266.91;;;10.91;81.98
38630;BME280;24384;51.988;4.644;2023-05-02T02:21:56;102274.88;;;10.87;81.34
38630;BME280;24384;51.988;4.644;2023-05-02T02:24:22;102268.72;;;10.88;81.37
38630;BME280;24384;51.988;4.644;2023-05-02T02:26:49;102272.47;;;10.67;81.46
38630;BME280;24384;51.988;4.644;2023-05-02T02:29:15;102277.72;;;10.67;82.15
38630;BME280;24384;51.988;4.644;2023-05-02T02:31:40;102273.22;;;10.75;80.61
38630;BME280;24384;51.988;4.644;2023-05-02T02:34:05;102280.97;;;10.92;79.56
38630;BME280;24384;51.988;4.644;2023-05-02T02:44:29;102283.22;;;10.45;79.94
38630;BME280;24384;51.988;4.644;2023-05-02T02:52:03;102291.13;;;10.47;77.63
38630;BME280;24384;51.988;4.644;2023-05-02T02:54:34;102292.94;;;10.42;77.76
38630;BME280;24384;51.988;4.644;2023-05-02T02:57:45;102292.88;;;10.48;77.82
38630;BME280;24384;51.988;4.644;2023-05-02T03:00:12;102292.81;;;10.54;76.67
38630;BME280;24384;51.988;4.644;2023-05-02T03:02:36;102298.13;;;10.52;77.96
38630;BME280;24384;51.988;4.644;2023-05-02T03:05:01;102302.56;;;10.49;77.17
38630;BME280;24384;51.988;4.644;2023-05-02T03:07:28;102312.25;;;10.42;77.75
38630;BME280;24384;51.988;4.644;2023-05-02T03:09:55;102314.00;;;10.46;77.32
38630;BME280;24384;51.988;4.644;2023-05-02T03:12:20;102314.91;;;10.42;77.32
38630;BME280;24384;51.988;4.644;2023-05-02T03:14:45;102314.84;;;10.48;76.90
38630;BME280;24384;51.988;4.644;2023-05-02T03:17:10;102319.16;;;10.60;76.54
38630;BME280;24384;51.988;4.644;2023-05-02T03:19:36;102321.03;;;10.47;76.73
38630;BME280;24384;51.988;4.644;2023-05-02T03:22:01;102326.31;;;10.46;76.75
38630;BME280;24384;51.988;4.644;2023-05-02T03:24:26;102328.91;;;10.50;76.55
38630;BME280;24384;51.988;4.644;2023-05-02T03:26:55;102335.16;;;10.38;76.71
38630;BME280;24384;51.988;4.644;2023-05-02T03:29:20;102339.50;;;10.47;76.19
38630;BME280;24384;51.988;4.644;2023-05-02T03:31:46;102343.88;;;10.47;76.40
38630;BME280;24384;51.988;4.644;2023-05-02T03:34:11;102350.97;;;10.42;76.35
38630;BME280;24384;51.988;4.644;2023-05-02T03:36:37;102346.63;;;10.34;76.98
38630;BME280;24384;51.988;4.644;2023-05-02T03:39:02;102345.75;;;10.29;77.63
38630;BME280;24384;51.988;4.644;2023-05-02T03:41:29;102355.44;;;10.30;77.17
38630;BME280;24384;51.988;4.644;2023-05-02T03:43:54;102358.88;;;10.42;76.11
38630;BME280;24384;51.988;4.644;2023-05-02T03:46:20;102359.81;;;10.34;77.31
38630;BME280;24384;51.988;4.644;2023-05-02T03:48:45;102365.16;;;10.20;76.82
38630;BME280;24384;51.988;4.644;2023-05-02T03:51:10;102365.97;;;10.30;76.56
38630;BME280;24384;51.988;4.644;2023-05-02T03:53:36;102364.34;;;10.12;76.14
38630;BME280;24384;51.988;4.644;2023-05-02T03:56:01;102367.00;;;10.06;76.77
38630;BME280;24384;51.988;4.644;2023-05-02T03:58:26;102364.38;;;10.04;75.90
38630;BME280;24384;51.988;4.644;2023-05-02T04:00:52;102367.03;;;10.01;75.43
38630;BME280;24384;51.988;4.644;2023-05-02T04:03:17;102369.63;;;10.11;75.55
38630;BME280;24384;51.988;4.644;2023-05-02T04:05:43;102375.81;;;10.02;75.20
38630;BME280;24384;51.988;4.644;2023-05-02T04:08:08;102376.66;;;10.12;73.67
38630;BME280;24384;51.988;4.644;2023-05-02T04:10:34;102377.53;;;10.11;73.04
38630;BME280;24384;51.988;4.644;2023-05-02T04:12:59;102380.25;;;9.95;73.89
38630;BME280;24384;51.988;4.644;2023-05-02T04:15:26;102378.47;;;10.00;73.94
38630;BME280;24384;51.988;4.644;2023-05-02T04:17:52;102393.34;;;10.12;73.03
38630;BME280;24384;51.988;4.644;2023-05-02T04:20:17;102388.13;;;10.01;73.29
38630;BME280;24384;51.988;4.644;2023-05-02T04:22:42;102384.63;;;9.99;74.26
38630;BME280;24384;51.988;4.644;2023-05-02T04:25:08;102389.06;;;9.90;74.06
38630;BME280;24384;51.988;4.644;2023-05-02T04:27:33;102386.41;;;9.96;74.52
38630;BME280;24384;51.988;4.644;2023-05-02T04:29:58;102393.41;;;10.00;74.17
38630;BME280;24384;51.988;4.644;2023-05-02T04:32:23;102406.59;;;9.98;74.15
38630;BME280;24384;51.988;4.644;2023-05-02T04:34:49;102410.03;;;10.08;73.65
38630;BME280;24384;51.988;4.644;2023-05-02T04:37:14;102417.03;;;10.18;73.13
38630;BME280;24384;51.988;4.644;2023-05-02T04:39:39;102422.28;;;10.20;72.92
38630;BME280;24384;51.988;4.644;2023-05-02T04:42:05;102420.56;;;10.13;72.66
38630;BME280;24384;51.988;4.644;2023-05-02T04:44:30;102431.97;;;10.21;72.43
38630;BME280;24384;51.988;4.644;2023-05-02T04:46:55;102431.97;;;10.18;72.86
38630;BME280;24384;51.988;4.644;2023-05-02T04:49:20;102432.03;;;10.09;73.75
38630;BME280;24384;51.988;4.644;2023-05-02T04:51:45;102438.13;;;10.15;72.90
38630;BME280;24384;51.988;4.644;2023-05-02T04:54:12;102446.88;;;10.19;72.98
38630;BME280;24384;51.988;4.644;2023-05-02T04:56:38;102445.25;;;10.01;73.45
38630;BME280;24384;51.988;4.644;2023-05-02T04:59:04;102443.47;;;10.01;74.07
38630;BME280;24384;51.988;4.644;2023-05-02T05:01:29;102450.50;;;10.07;73.50
38630;BME280;24384;51.988;4.644;2023-05-02T05:03:54;102447.94;;;9.93;73.98
38630;BME280;24384;51.988;4.644;2023-05-02T05:06:20;102447.88;;;10.02;73.30
38630;BME280;24384;51.988;4.644;2023-05-02T05:08:45;102453.19;;;9.96;73.75
38630;BME280;24384;51.988;4.644;2023-05-02T05:11:10;102448.75;;;10.04;73.80
38630;BME280;24384;51.988;4.644;2023-05-02T05:13:36;102451.31;;;10.14;73.28
38630;BME280;24384;51.988;4.644;2023-05-02T05:16:01;102458.41;;;10.04;73.95
38630;BME280;24384;51.988;4.644;2023-05-02T05:18:26;102459.28;;;10.06;75.00
38630;BME280;24384;51.988;4.644;2023-05-02T05:20:51;102453.97;;;10.14;74.29
38630;BME280;24384;51.988;4.644;2023-05-02T05:23:17;102465.34;;;10.22;70.82
38630;BME280;24384;51.988;4.644;2023-05-02T05:25:42;102471.50;;;10.23;69.69
38630;BME280;24384;51.988;4.644;2023-05-02T05:28:07;102475.97;;;10.03;70.01
38630;BME280;24384;51.988;4.644;2023-05-02T05:30:32;102471.59;;;10.06;70.46
38630;BME280;24384;51.988;4.644;2023-05-02T05:32:57;102472.38;;;10.23;70.08
38630;BME280;24384;51.988;4.644;2023-05-02T05:35:23;102482.09;;;10.15;71.24
38630;BME280;24384;51.988;4.644;2023-05-02T05:37:48;102493.53;;;10.08;71.27
38630;BME280;24384;51.988;4.644;2023-05-02T05:40:13;102489.09;;;10.17;70.05
38630;BME280;24384;51.988;4.644;2023-05-02T05:42:40;102490.00;;;10.15;69.84
38630;BME280;24384;51.988;4.644;2023-05-02T05:45:05;102500.50;;;10.21;68.86
38630;BME280;24384;51.988;4.644;2023-05-02T05:47:31;102511.88;;;10.31;68.92
38630;BME280;24384;51.988;4.644;2023-05-02T05:49:56;102509.25;;;10.31;69.45
38630;BME280;24384;51.988;4.644;2023-05-02T05:52:21;102515.34;;;10.45;70.55
38630;BME280;24384;51.988;4.644;2023-05-02T05:54:46;102513.59;;;10.49;70.81
38630;BME280;24384;51.988;4.644;2023-05-02T05:57:12;102512.66;;;10.53;70.22
38630;BME280;24384;51.988;4.644;2023-05-02T05:59:37;102522.31;;;10.60;69.04
38630;BME280;24384;51.988;4.644;2023-05-02T06:02:02;102531.78;;;10.86;67.45
38630;BME280;24384;51.988;4.644;2023-05-02T06:04:28;102530.91;;;10.85;67.75
38630;BME280;24384;51.988;4.644;2023-05-02T06:06:53;102538.81;;;10.90;66.69
38630;BME280;24384;51.988;4.644;2023-05-02T06:09:18;102541.38;;;10.96;65.27
38630;BME280;24384;51.988;4.644;2023-05-02T06:11:44;102547.50;;;11.00;65.99
38630;BME280;24384;51.988;4.644;2023-05-02T06:14:09;102544.00;;;11.01;66.68
38630;BME280;24384;51.988;4.644;2023-05-02T06:16:36;102554.38;;;11.24;65.56
38630;BME280;24384;51.988;4.644;2023-05-02T06:19:01;102555.25;;;11.21;64.38
38630;BME280;24384;51.988;4.644;2023-05-02T06:21:26;102556.22;;;11.16;64.35
38630;BME280;24384;51.988;4.644;2023-05-02T06:23:51;102558.72;;;11.33;65.21
38630;BME280;24384;51.988;4.644;2023-05-02T06:26:17;102561.22;;;11.46;64.24
38630;BME280;24384;51.988;4.644;2023-05-02T06:28:42;102559.56;;;11.36;64.75
38630;BME280;24384;51.988;4.644;2023-05-02T06:31:08;102569.16;;;11.48;64.87
38630;BME280;24384;51.988;4.644;2023-05-02T06:33:33;102577.78;;;11.64;63.39
38630;BME280;24384;51.988;4.644;2023-05-02T06:35:59;102576.06;;;11.58;64.24
38630;BME280;24384;51.988;4.644;2023-05-02T06:38:24;102580.19;;;11.87;63.21
38630;BME280;24384;51.988;4.644;2023-05-02T06:40:50;102578.28;;;12.03;63.00
38630;BME280;24384;51.988;4.644;2023-05-02T06:43:15;102586.22;;;12.03;62.56
38630;BME280;24384;51.988;4.644;2023-05-02T06:45:41;102594.25;;;11.89;63.42
38630;BME280;24384;51.988;4.644;2023-05-02T06:48:06;102594.25;;;11.89;63.68
38630;BME280;24384;51.988;4.644;2023-05-02T06:50:33;102600.47;;;11.87;63.96
38630;BME280;24384;51.988;4.644;2023-05-02T06:52:58;102613.13;;;11.52;63.92
38630;BME280;24384;51.988;4.644;2023-05-02T06:55:23;102608.97;;;11.25;63.98
38630;BME280;24384;51.988;4.644;2023-05-02T06:57:48;102615.03;;;11.36;64.36
38630;BME280;24384;51.988;4.644;2023-05-02T07:00:17;102609.06;;;11.13;64.48
38630;BME280;24384;51.988;4.644;2023-05-02T07:02:44;102617.84;;;11.11;64.58
38630;BME280;24384;51.988;4.644;2023-05-02T07:05:09;102613.38;;;11.18;62.69
38630;BME280;24384;51.988;4.644;2023-05-02T07:07:35;102617.69;;;11.33;62.30
38630;BME280;24384;51.988;4.644;2023-05-02T07:10:00;102624.53;;;11.59;64.03
38630;BME280;24384;51.988;4.644;2023-05-02T07:12:25;102626.13;;;11.75;60.90
38630;BME280;24384;51.988;4.644;2023-05-02T07:14:50;102621.81;;;11.67;61.03
38630;BME280;24384;51.988;4.644;2023-05-02T07:17:16;102626.75;;;12.07;59.24
38630;BME280;24384;51.988;4.644;2023-05-02T07:19:41;102628.31;;;12.23;58.78
38630;BME280;24384;51.988;4.644;2023-05-02T07:22:06;102629.81;;;12.46;57.58
38630;BME280;24384;51.988;4.644;2023-05-02T07:24:31;102626.88;;;12.67;56.89
38630;BME280;24384;51.988;4.644;2023-05-02T07:26:57;102635.69;;;12.68;57.71
38630;BME280;24384;51.988;4.644;2023-05-02T07:29:22;102631.31;;;12.67;56.55
38630;BME280;24384;51.988;4.644;2023-05-02T07:31:47;102629.38;;;12.80;57.28
38630;BME280;24384;51.988;4.644;2023-05-02T07:34:12;102637.38;;;12.75;59.85
38630;BME280;24384;51.988;4.644;2023-05-02T07:36:37;102628.00;;;13.13;59.93
38630;BME280;24384;51.988;4.644;2023-05-02T07:39:02;102642.53;;;13.45;58.11
38630;BME280;24384;51.988;4.644;2023-05-02T07:41:28;102645.38;;;13.31;57.18
38630;BME280;24384;51.988;4.644;2023-05-02T07:43:53;102654.03;;;13.46;56.15
38630;BME280;24384;51.988;4.644;2023-05-02T07:46:18;102658.56;;;13.37;57.01
38630;BME280;24384;51.988;4.644;2023-05-02T07:48:44;102658.50;;;13.40;56.25
38630;BME280;24384;51.988;4.644;2023-05-02T07:51:10;102662.09;;;13.38;54.37
38630;BME280;24384;51.988;4.644;2023-05-02T07:53:35;102665.69;;;13.32;53.03
38630;BME280;24384;51.988;4.644;2023-05-02T07:56:02;102665.56;;;13.41;52.70
38630;BME280;24384;51.988;4.644;2023-05-02T07:58:27;102672.28;;;13.64;54.05
38630;BME280;24384;51.988;4.644;2023-05-02T08:00:52;102679.47;;;13.56;53.11
38630;BME280;24384;51.988;4.644;2023-05-02T08:03:18;102671.25;;;13.73;52.67
38630;BME280;24384;51.988;4.644;2023-05-02T08:05:43;102671.31;;;13.68;54.06
38630;BME280;24384;51.988;4.644;2023-05-02T08:08:08;102669.47;;;13.75;53.63
38630;BME280;24384;51.988;4.644;2023-05-02T08:10:33;102674.91;;;13.66;53.46
38630;BME280;24384;51.988;4.644;2023-05-02T08:12:58;102681.44;;;13.96;51.89
38630;BME280;24384;51.988;4.644;2023-05-02T08:15:25;102675.50;;;13.82;52.43
38630;BME280;24384;51.988;4.644;2023-05-02T08:17:50;102683.44;;;13.83;50.81
38630;BME280;24384;51.988;4.644;2023-05-02T08:20:15;102678.81;;;13.43;51.32
38630;BME280;24384;51.988;4.644;2023-05-02T08:22:40;102688.38;;;13.53;49.74
38630;BME280;24384;51.988;4.644;2023-05-02T08:25:05;102685.50;;;13.05;50.39
38630;BME280;24384;51.988;4.644;2023-05-02T08:27:31;102695.03;;;13.18;50.00
38630;BME280;24384;51.988;4.644;2023-05-02T08:29:56;102697.53;;;13.29;50.98
38630;BME280;24384;51.988;4.644;2023-05-02T08:32:22;102686.75;;;13.43;51.44
38630;BME280;24384;51.988;4.644;2023-05-02T08:34:47;102691.75;;;13.63;50.00
38630;BME280;24384;51.988;4.644;2023-05-02T08:37:12;102702.50;;;13.54;48.58
38630;BME280;24384;51.988;4.644;2023-05-02T08:39:37;102703.78;;;13.84;48.27
38630;BME280;24384;51.988;4.644;2023-05-02T08:42:09;102701.34;;;13.70;48.32
38630;BME280;24384;51.988;4.644;2023-05-02T08:44:34;102707.75;;;13.57;47.81
38630;BME280;24384;51.988;4.644;2023-05-02T08:46:59;102712.31;;;13.47;48.92
38630;BME280;24384;51.988;4.644;2023-05-02T08:49:25;102723.59;;;14.13;48.17
38630;BME280;24384;51.988;4.644;2023-05-02T08:51:53;102721.84;;;14.12;46.39
38630;BME280;24384;51.988;4.644;2023-05-02T08:54:19;102715.59;;;14.64;46.69
38630;BME280;24384;51.988;4.644;2023-05-02T08:56:45;102725.66;;;14.44;47.39
38630;BME280;24384;51.988;4.644;2023-05-02T08:59:11;102717.28;;;14.67;47.06
38630;BME280;24384;51.988;4.644;2023-05-02T09:01:36;102725.25;;;14.67;46.58
38630;BME280;24384;51.988;4.644;2023-05-02T09:04:05;102721.78;;;15.06;45.19
38630;BME280;24384;51.988;4.644;2023-05-02T09:06:30;102728.50;;;14.81;45.79
38630;BME280;24384;51.988;4.644;2023-05-02T09:08:58;102723.06;;;15.28;45.36
38630;BME280;24384;51.988;4.644;2023-05-02T09:11:24;102723.06;;;15.28;44.01
38630;BME280;24384;51.988;4.644;2023-05-02T09:13:50;102721.13;;;15.72;42.33
38630;BME280;24384;51.988;4.644;2023-05-02T09:16:20;102728.28;;;14.92;44.31
38630;BME280;24384;51.988;4.644;2023-05-02T09:18:50;102741.44;;;14.98;44.03
38630;BME280;24384;51.988;4.644;2023-05-02T09:21:18;102727.00;;;15.49;44.77
38630;BME280;24384;51.988;4.644;2023-05-02T09:23:50;102727.78;;;15.90;43.99
38630;BME280;24384;51.988;4.644;2023-05-02T09:28:46;102731.50;;;16.19;41.25
38630;BME280;24384;51.988;4.644;2023-05-02T09:31:13;102731.09;;;16.66;41.98
38630;BME280;24384;51.988;4.644;2023-05-02T09:33:39;102729.59;;;17.17;39.13
38630;BME280;24384;51.988;4.644;2023-05-02T09:36:04;102732.03;;;16.96;40.42
38630;BME280;24384;51.988;4.644;2023-05-02T09:38:32;102731.84;;;17.31;41.30
38630;BME280;24384;51.988;4.644;2023-05-02T09:40:58;102736.19;;;17.90;40.96
38630;BME280;24384;51.988;4.644;2023-05-02T09:43:23;102731.78;;;18.39;42.37
38630;BME280;24384;51.988;4.644;2023-05-02T09:46:22;102740.25;;;18.52;38.19
38630;BME280;24384;51.988;4.644;2023-05-02T09:48:52;102748.72;;;18.64;38.01
38630;BME280;24384;51.988;4.644;2023-05-02T09:51:19;102744.22;;;18.15;38.32
38630;BME280;24384;51.988;4.644;2023-05-02T09:53:46;102754.41;;;17.19;38.50
38630;BME280;24384;51.988;4.644;2023-05-02T09:56:11;102751.75;;;17.49;39.75
38630;BME280;24384;51.988;4.644;2023-05-02T09:58:37;102752.16;;;17.05;38.45
38630;BME280;24384;51.988;4.644;2023-05-02T10:01:02;102757.06;;;17.49;39.28
38630;BME280;24384;51.988;4.644;2023-05-02T10:03:28;102751.19;;;17.94;37.42
38630;BME280;24384;51.988;4.644;2023-05-02T10:05:56;102755.63;;;18.20;37.88
38630;BME280;24384;51.988;4.644;2023-05-02T10:08:24;102753.88;;;18.93;37.51
38630;BME280;24384;51.988;4.644;2023-05-02T10:10:57;102748.34;;;19.22;36.89
38630;BME280;24384;51.988;4.644;2023-05-02T10:13:23;102742.63;;;19.53;34.81
38630;BME280;24384;51.988;4.644;2023-05-02T10:16:01;102748.16;;;19.71;36.79
38630;BME280;24384;51.988;4.644;2023-05-02T10:18:28;102748.84;;;19.31;36.60
38630;BME280;24384;51.988;4.644;2023-05-02T10:20:55;102753.78;;;19.87;35.79
38630;BME280;24384;51.988;4.644;2023-05-02T10:23:20;102759.31;;;19.60;34.72
38630;BME280;24384;51.988;4.644;2023-05-02T10:25:46;102751.44;;;19.79;33.71
38630;BME280;24384;51.988;4.644;2023-05-02T10:28:11;102755.84;;;19.36;33.69
38630;BME280;24384;51.988;4.644;2023-05-02T10:30:40;102756.88;;;19.76;33.69
38630;BME280;24384;51.988;4.644;2023-05-02T10:33:05;102754.41;;;19.93;33.11
38630;BME280;24384;51.988;4.644;2023-05-02T10:35:31;102756.16;;;20.56;32.62
38630;BME280;24384;51.988;4.644;2023-05-02T10:37:56;102756.28;;;20.53;31.38
38630;BME280;24384;51.988;4.644;2023-05-02T10:40:22;102757.31;;;20.30;32.47
38630;BME280;24384;51.988;4.644;2023-05-02T10:42:48;102755.75;;;20.45;31.32
38630;BME280;24384;51.988;4.644;2023-05-02T10:45:31;102764.59;;;19.61;32.92
38630;BME280;24384;51.988;4.644;2023-05-02T10:48:15;102772.53;;;18.95;34.31
38630;BME280;24384;51.988;4.644;2023-05-02T10:50:59;102762.16;;;19.33;33.67
38630;BME280;24384;51.988;4.644;2023-05-02T10:53:31;102767.16;;;19.64;33.19
38630;BME280;24384;51.988;4.644;2023-05-02T10:58:41;102764.25;;;19.93;31.32
38630;BME280;24384;51.988;4.644;2023-05-02T11:06:28;102767.84;;;19.70;32.29
38630;BME280;24384;51.988;4.644;2023-05-02T11:11:41;102769.28;;;20.00;31.69
38630;BME280;24384;51.988;4.644;2023-05-02T11:14:10;102774.69;;;19.55;34.50
38630;BME280;24384;51.988;4.644;2023-05-02T11:19:20;102778.00;;;18.92;34.19
38630;BME280;24384;51.988;4.644;2023-05-02T11:21:45;102775.50;;;18.87;34.25
38630;BME280;24384;51.988;4.644;2023-05-02T11:27:02;102775.56;;;18.60;32.89
38630;BME280;24384;51.988;4.644;2023-05-02T11:29:52;102777.16;;;18.41;36.28
38630;BME280;24384;51.988;4.644;2023-05-02T11:32:18;102780.00;;;18.61;38.14
38630;BME280;24384;51.988;4.644;2023-05-02T11:34:43;102774.19;;;18.74;38.55
38630;BME280;24384;51.988;4.644;2023-05-02T11:37:09;102776.41;;;19.33;37.91
38630;BME280;24384;51.988;4.644;2023-05-02T11:39:35;102771.66;;;19.86;35.46
38630;BME280;24384;51.988;4.644;2023-05-02T11:42:00;102764.47;;;20.09;32.45
38630;BME280;24384;51.988;4.644;2023-05-02T11:44:25;102774.38;;;19.84;34.41
38630;BME280;24384;51.988;4.644;2023-05-02T11:46:51;102779.88;;;20.03;33.30
38630;BME280;24384;51.988;4.644;2023-05-02T11:49:17;102779.88;;;20.24;31.16
38630;BME280;24384;51.988;4.644;2023-05-02T11:51:42;102782.81;;;20.59;32.11
38630;BME280;24384;51.988;4.644;2023-05-02T11:54:08;102784.56;;;20.81;31.77
38630;BME280;24384;51.988;4.644;2023-05-02T11:56:40;102796.63;;;21.29;31.37
38630;BME280;24384;51.988;4.644;2023-05-02T11:59:06;102801.09;;;21.28;31.37
38630;BME280;24384;51.988;4.644;2023-05-02T12:01:32;102794.66;;;20.74;30.61
38630;BME280;24384;51.988;4.644;2023-05-02T12:04:01;102798.63;;;20.24;31.50
38630;BME280;24384;51.988;4.644;2023-05-02T12:06:26;102801.81;;;19.91;32.64
38630;BME280;24384;51.988;4.644;2023-05-02T12:08:51;102803.00;;;20.27;32.23
38630;BME280;24384;51.988;4.644;2023-05-02T12:11:29;102802.31;;;20.42;31.43
38630;BME280;24384;51.988;4.644;2023-05-02T12:13:56;102805.47;;;20.52;29.78
38630;BME280;24384;51.988;4.644;2023-05-02T12:16:21;102800.91;;;20.33;31.49
38630;BME280;24384;51.988;4.644;2023-05-02T12:18:46;102797.63;;;20.68;30.72
38630;BME280;24384;51.988;4.644;2023-05-02T12:21:12;102801.34;;;20.65;32.75
38630;BME280;24384;51.988;4.644;2023-05-02T12:23:38;102803.97;;;20.24;33.67
38630;BME280;24384;51.988;4.644;2023-05-02T12:26:23;102810.19;;;20.25;31.60
38630;BME280;24384;51.988;4.644;2023-05-02T12:28:50;102809.66;;;19.50;31.84
38630;BME280;24384;51.988;4.644;2023-05-02T12:31:15;102819.97;;;18.65;34.53
38630;BME280;24384;51.988;4.644;2023-05-02T12:33:41;102824.47;;;18.89;35.99
38630;BME280;24384;51.988;4.644;2023-05-02T12:36:08;102819.13;;;18.89;34.06
38630;BME280;24384;51.988;4.644;2023-05-02T12:38:33;102826.59;;;18.28;35.49
38630;BME280;24384;51.988;4.644;2023-05-02T12:40:59;102825.63;;;17.75;35.02
38630;BME280;24384;51.988;4.644;2023-05-02T12:43:26;102829.00;;;18.60;38.09
38630;BME280;24384;51.988;4.644;2023-05-02T12:46:07;102834.53;;;19.30;35.67
38630;BME280;24384;51.988;4.644;2023-05-02T12:48:33;102837.03;;;19.57;33.63
38630;BME280;24384;51.988;4.644;2023-05-02T12:50:58;102820.91;;;19.82;34.69
38630;BME280;24384;51.988;4.644;2023-05-02T12:53:36;102825.13;;;20.10;32.73
38630;BME280;24384;51.988;4.644;2023-05-02T12:56:02;102834.28;;;20.47;31.84
38630;BME280;24384;51.988;4.644;2023-05-02T12:58:28;102833.81;;;20.78;30.93
38630;BME280;24384;51.988;4.644;2023-05-02T13:00:53;102834.97;;;21.31;31.49
38630;BME280;24384;51.988;4.644;2023-05-02T13:03:18;102836.44;;;21.38;29.58
38630;BME280;24384;51.988;4.644;2023-05-02T13:05:44;102833.19;;;22.24;30.12
38630;BME280;24384;51.988;4.644;2023-05-02T13:08:09;102839.53;;;22.40;28.75
38630;BME280;24384;51.988;4.644;2023-05-02T13:10:35;102838.59;;;22.59;28.19
38630;BME280;24384;51.988;4.644;2023-05-02T13:13:00;102844.75;;;22.61;28.36
38630;BME280;24384;51.988;4.644;2023-05-02T13:15:25;102847.34;;;22.62;27.79
38630;BME280;24384;51.988;4.644;2023-05-02T13:17:50;102860.19;;;22.91;27.35
38630;BME280;24384;51.988;4.644;2023-05-02T13:20:17;102845.41;;;23.33;27.27
38630;BME280;24384;51.988;4.644;2023-05-02T13:22:43;102843.06;;;23.74;25.62
38630;BME280;24384;51.988;4.644;2023-05-02T13:25:08;102842.81;;;24.25;24.33